sensor_id;sensor_type;location;lat;lon;timestamp;pressure;altitude;pressure_sealevel;temperature;humidity
48810;BME280;40070;47.322;18.784;2023-06-10T07:28:25;998.77;;;23.11;64.40
48810;BME280;40070;47.322;18.784;2023-06-10T07:30:27;998.76;;;22.99;65.12
48810;BME280;40070;47.322;18.784;2023-06-10T07:32:30;998.76;;;22.59;66.74
48810;BME280;40070;47.322;18.784;2023-06-10T07:34:53;998.77;;;22.49;67.55
48810;BME280;40070;47.322;18.784;2023-06-10T07:36:56;998.79;;;22.79;67.77
48810;BME280;40070;47.322;18.784;2023-06-10T07:38:58;998.70;;;23.15;67.14
48810;BME280;40070;47.322;18.784;2023-06-10T07:41:01;998.74;;;23.29;66.33
48810;BME280;40070;47.322;18.784;2023-06-10T07:43:03;998.76;;;23.28;64.34
48810;BME280;40070;47.322;18.784;2023-06-10T07:55:34;998.73;;;23.58;62.42
48810;BME280;40070;47.322;18.784;2023-06-10T07:57:36;998.76;;;23.52;62.79
48810;BME280;40070;47.322;18.784;2023-06-10T07:59:39;998.71;;;23.76;62.20
48810;BME280;40070;47.322;18.784;2023-06-10T08:01:41;998.75;;;23.99;61.97
48810;BME280;40070;47.322;18.784;2023-06-10T08:03:44;998.75;;;24.32;61.50
48810;BME280;40070;47.322;18.784;2023-06-10T08:05:47;998.73;;;24.38;60.95
48810;BME280;40070;47.322;18.784;2023-06-10T08:07:49;998.70;;;24.02;59.31
48810;BME280;40070;47.322;18.784;2023-06-10T08:09:51;998.74;;;24.29;60.44
48810;BME280;40070;47.322;18.784;2023-06-10T08:11:54;998.75;;;24.45;61.65
48810;BME280;40070;47.322;18.784;2023-06-10T08:13:56;998.76;;;24.31;60.27
48810;BME280;40070;47.322;18.784;2023-06-10T08:15:59;998.69;;;24.18;61.11
48810;BME280;40070;47.322;18.784;2023-06-10T08:18:02;998.75;;;23.85;62.49
48810;BME280;40070;47.322;18.784;2023-06-10T08:20:05;998.73;;;23.69;62.95
48810;BME280;40070;47.322;18.784;2023-06-10T08:22:07;998.71;;;23.82;63.55
48810;BME280;40070;47.322;18.784;2023-06-10T08:24:10;998.74;;;23.91;62.39
48810;BME280;40070;47.322;18.784;2023-06-10T08:26:12;998.71;;;24.09;61.37
48810;BME280;40070;47.322;18.784;2023-06-10T08:28:15;998.70;;;23.96;62.30
48810;BME280;40070;47.322;18.784;2023-06-10T08:30:17;998.71;;;24.25;61.16
48810;BME280;40070;47.322;18.784;2023-06-10T08:32:20;998.68;;;24.31;60.40
48810;BME280;40070;47.322;18.784;2023-06-10T08:34:22;998.63;;;24.49;60.51
48810;BME280;40070;47.322;18.784;2023-06-10T08:36:25;998.67;;;24.84;60.18
48810;BME280;40070;47.322;18.784;2023-06-10T08:38:27;998.60;;;24.89;60.19
48810;BME280;40070;47.322;18.784;2023-06-10T08:40:30;998.63;;;24.82;58.56
48810;BME280;40070;47.322;18.784;2023-06-10T08:42:33;998.61;;;24.53;59.08
48810;BME280;40070;47.322;18.784;2023-06-10T08:44:36;998.65;;;24.56;60.87
48810;BME280;40070;47.322;18.784;2023-06-10T08:46:38;998.66;;;24.60;59.61
48810;BME280;40070;47.322;18.784;2023-06-10T08:48:45;998.59;;;24.76;58.91
48810;BME280;40070;47.322;18.784;2023-06-10T08:50:49;998.55;;;24.70;59.00
48810;BME280;40070;47.322;18.784;2023-06-10T08:52:53;998.52;;;24.85;59.18
48810;BME280;40070;47.322;18.784;2023-06-10T08:54:57;998.46;;;25.10;59.38
48810;BME280;40070;47.322;18.784;2023-06-10T08:56:59;998.48;;;25.08;59.94
48810;BME280;40070;47.322;18.784;2023-06-10T08:59:03;998.45;;;25.27;59.25
48810;BME280;40070;47.322;18.784;2023-06-10T09:01:05;998.43;;;25.38;57.95
48810;BME280;40070;47.322;18.784;2023-06-10T09:03:08;998.43;;;25.45;56.09
48810;BME280;40070;47.322;18.784;2023-06-10T09:05:11;998.47;;;25.39;57.45
48810;BME280;40070;47.322;18.784;2023-06-10T09:07:15;998.50;;;25.28;57.14
48810;BME280;40070;47.322;18.784;2023-06-10T09:09:18;998.51;;;25.14;56.96
48810;BME280;40070;47.322;18.784;2023-06-10T09:11:21;998.50;;;25.09;58.71
48810;BME280;40070;47.322;18.784;2023-06-10T09:13:23;998.50;;;25.24;56.44
48810;BME280;40070;47.322;18.784;2023-06-10T09:15:26;998.49;;;25.04;58.19
48810;BME280;40070;47.322;18.784;2023-06-10T09:17:29;998.48;;;24.86;56.89
48810;BME280;40070;47.322;18.784;2023-06-10T09:19:31;998.46;;;24.70;59.31
48810;BME280;40070;47.322;18.784;2023-06-10T09:21:34;998.49;;;24.57;57.91
48810;BME280;40070;47.322;18.784;2023-06-10T09:23:37;998.50;;;24.38;58.78
48810;BME280;40070;47.322;18.784;2023-06-10T09:25:39;998.53;;;24.31;59.97
48810;BME280;40070;47.322;18.784;2023-06-10T09:27:48;998.56;;;24.37;58.69
48810;BME280;40070;47.322;18.784;2023-06-10T09:29:51;998.60;;;24.32;58.80
48810;BME280;40070;47.322;18.784;2023-06-10T09:31:54;998.61;;;23.89;60.48
48810;BME280;40070;47.322;18.784;2023-06-10T09:34:09;998.56;;;23.84;61.50
48810;BME280;40070;47.322;18.784;2023-06-10T09:36:21;998.53;;;23.43;63.16
48810;BME280;40070;47.322;18.784;2023-06-10T09:38:23;998.52;;;23.32;63.95
48810;BME280;40070;47.322;18.784;2023-06-10T09:40:31;998.49;;;23.14;64.81
48810;BME280;40070;47.322;18.784;2023-06-10T09:42:34;998.50;;;22.86;65.66
48810;BME280;40070;47.322;18.784;2023-06-10T09:44:36;998.51;;;22.97;66.29
48810;BME280;40070;47.322;18.784;2023-06-10T09:46:41;998.51;;;23.07;66.85
48810;BME280;40070;47.322;18.784;2023-06-10T09:48:44;998.54;;;23.29;65.57
48810;BME280;40070;47.322;18.784;2023-06-10T09:50:48;998.55;;;23.51;65.71
48810;BME280;40070;47.322;18.784;2023-06-10T09:52:50;998.57;;;23.49;65.32
48810;BME280;40070;47.322;18.784;2023-06-10T09:54:53;998.60;;;23.53;64.96
48810;BME280;40070;47.322;18.784;2023-06-10T09:56:56;998.60;;;23.27;66.47
48810;BME280;40070;47.322;18.784;2023-06-10T09:58:58;998.54;;;22.85;67.24
48810;BME280;40070;47.322;18.784;2023-06-10T10:01:04;998.53;;;22.89;68.35
48810;BME280;40070;47.322;18.784;2023-06-10T10:03:06;998.54;;;23.05;67.55
48810;BME280;40070;47.322;18.784;2023-06-10T10:05:09;998.47;;;23.17;67.80
48810;BME280;40070;47.322;18.784;2023-06-10T10:07:12;998.52;;;23.30;66.74
48810;BME280;40070;47.322;18.784;2023-06-10T10:09:15;998.49;;;23.50;66.73
48810;BME280;40070;47.322;18.784;2023-06-10T10:11:18;998.50;;;23.65;66.52
48810;BME280;40070;47.322;18.784;2023-06-10T10:13:20;998.47;;;23.50;66.89
48810;BME280;40070;47.322;18.784;2023-06-10T10:15:23;998.54;;;22.95;68.39
48810;BME280;40070;47.322;18.784;2023-06-10T10:17:26;998.46;;;23.19;67.69
48810;BME280;40070;47.322;18.784;2023-06-10T10:19:30;998.44;;;23.20;67.93
48810;BME280;40070;47.322;18.784;2023-06-10T10:21:35;998.42;;;23.20;66.75
48810;BME280;40070;47.322;18.784;2023-06-10T10:23:44;998.42;;;23.11;67.45
48810;BME280;40070;47.322;18.784;2023-06-10T10:25:51;998.47;;;23.08;67.26
48810;BME280;40070;47.322;18.784;2023-06-10T10:28:08;998.45;;;22.91;67.42
48810;BME280;40070;47.322;18.784;2023-06-10T10:30:11;998.41;;;23.03;67.57
48810;BME280;40070;47.322;18.784;2023-06-10T10:32:15;998.36;;;23.37;67.91
48810;BME280;40070;47.322;18.784;2023-06-10T10:34:19;998.37;;;23.45;68.10
48810;BME280;40070;47.322;18.784;2023-06-10T10:36:23;998.32;;;23.22;68.25
48810;BME280;40070;47.322;18.784;2023-06-10T10:38:26;998.32;;;23.16;68.27
48810;BME280;40070;47.322;18.784;2023-06-10T10:40:30;998.29;;;23.02;68.64
48810;BME280;40070;47.322;18.784;2023-06-10T10:42:32;998.24;;;23.12;69.12
48810;BME280;40070;47.322;18.784;2023-06-10T10:44:37;998.27;;;23.39;67.92
48810;BME280;40070;47.322;18.784;2023-06-10T10:46:43;998.24;;;23.46;66.73
48810;BME280;40070;47.322;18.784;2023-06-10T10:48:46;998.25;;;23.45;67.29
48810;BME280;40070;47.322;18.784;2023-06-10T10:50:57;998.20;;;23.55;68.02
48810;BME280;40070;47.322;18.784;2023-06-10T10:53:00;998.17;;;23.63;67.62
48810;BME280;40070;47.322;18.784;2023-06-10T10:55:03;998.13;;;23.65;69.01
48810;BME280;40070;47.322;18.784;2023-06-10T10:57:21;998.17;;;23.50;67.14
48810;BME280;40070;47.322;18.784;2023-06-10T10:59:24;998.17;;;23.66;67.30
48810;BME280;40070;47.322;18.784;2023-06-10T11:01:26;998.18;;;23.53;66.96
48810;BME280;40070;47.322;18.784;2023-06-10T11:03:44;998.13;;;23.79;67.28
48810;BME280;40070;47.322;18.784;2023-06-10T11:05:47;998.15;;;23.96;66.25
48810;BME280;40070;47.322;18.784;2023-06-10T11:07:54;998.09;;;24.16;66.31
48810;BME280;40070;47.322;18.784;2023-06-10T11:10:29;998.08;;;24.05;66.86
48810;BME280;40070;47.322;18.784;2023-06-10T11:12:21;998.00;;;24.29;66.25
48810;BME280;40070;47.322;18.784;2023-06-10T11:14:27;998.04;;;24.00;66.66
48810;BME280;40070;47.322;18.784;2023-06-10T11:16:30;998.00;;;24.03;65.48
48810;BME280;40070;47.322;18.784;2023-06-10T11:18:40;998.02;;;24.30;64.57
48810;BME280;40070;47.322;18.784;2023-06-10T11:20:50;998.04;;;24.13;64.89
48810;BME280;40070;47.322;18.784;2023-06-10T11:22:58;998.05;;;24.26;64.33
48810;BME280;40070;47.322;18.784;2023-06-10T11:25:00;998.01;;;24.40;62.52
48810;BME280;40070;47.322;18.784;2023-06-10T11:27:18;998.01;;;24.55;61.75
48810;BME280;40070;47.322;18.784;2023-06-10T11:29:21;997.98;;;24.69;60.45
48810;BME280;40070;47.322;18.784;2023-06-10T11:31:24;998.00;;;24.61;60.79
48810;BME280;40070;47.322;18.784;2023-06-10T11:33:27;997.99;;;24.63;63.20
48810;BME280;40070;47.322;18.784;2023-06-10T11:35:30;997.95;;;24.66;57.60
48810;BME280;40070;47.322;18.784;2023-06-10T11:37:33;997.93;;;24.84;57.62
48810;BME280;40070;47.322;18.784;2023-06-10T11:39:35;997.88;;;24.99;62.46
48810;BME280;40070;47.322;18.784;2023-06-10T11:41:38;997.89;;;25.34;58.10
48810;BME280;40070;47.322;18.784;2023-06-10T11:43:44;997.88;;;25.67;57.35
48810;BME280;40070;47.322;18.784;2023-06-10T11:45:47;997.87;;;26.10;57.51
48810;BME280;40070;47.322;18.784;2023-06-10T11:47:56;997.88;;;25.85;56.09
48810;BME280;40070;47.322;18.784;2023-06-10T11:49:59;997.84;;;25.77;55.63
48810;BME280;40070;47.322;18.784;2023-06-10T11:52:02;997.82;;;25.87;54.21
48810;BME280;40070;47.322;18.784;2023-06-10T11:54:08;997.79;;;26.17;52.06
48810;BME280;40070;47.322;18.784;2023-06-10T11:56:10;997.75;;;26.50;52.05
48810;BME280;40070;47.322;18.784;2023-06-10T11:58:22;997.66;;;26.73;52.17
48810;BME280;40070;47.322;18.784;2023-06-10T12:00:24;997.70;;;26.70;55.24
48810;BME280;40070;47.322;18.784;2023-06-10T12:02:27;997.61;;;26.90;49.88
48810;BME280;40070;47.322;18.784;2023-06-10T12:04:29;997.59;;;27.00;51.65
48810;BME280;40070;47.322;18.784;2023-06-10T12:06:45;997.62;;;27.28;51.47
48810;BME280;40070;47.322;18.784;2023-06-10T12:08:48;997.62;;;27.04;51.15
48810;BME280;40070;47.322;18.784;2023-06-10T12:10:50;997.60;;;26.80;51.56
48810;BME280;40070;47.322;18.784;2023-06-10T12:12:53;997.61;;;26.54;51.83
48810;BME280;40070;47.322;18.784;2023-06-10T12:14:56;997.63;;;26.49;54.55
48810;BME280;40070;47.322;18.784;2023-06-10T12:16:59;997.70;;;25.58;57.11
48810;BME280;40070;47.322;18.784;2023-06-10T12:19:02;997.68;;;25.07;57.10
48810;BME280;40070;47.322;18.784;2023-06-10T12:21:26;997.70;;;24.86;60.67
48810;BME280;40070;47.322;18.784;2023-06-10T12:23:20;997.76;;;24.61;64.32
48810;BME280;40070;47.322;18.784;2023-06-10T12:25:26;997.76;;;24.74;65.13
48810;BME280;40070;47.322;18.784;2023-06-10T12:27:29;997.79;;;24.69;66.15
48810;BME280;40070;47.322;18.784;2023-06-10T12:29:31;997.74;;;24.63;66.67
48810;BME280;40070;47.322;18.784;2023-06-10T12:31:51;997.72;;;24.45;67.92
48810;BME280;40070;47.322;18.784;2023-06-10T12:33:48;997.68;;;24.25;69.68
48810;BME280;40070;47.322;18.784;2023-06-10T12:35:51;997.64;;;24.35;68.89
48810;BME280;40070;47.322;18.784;2023-06-10T12:38:03;997.65;;;24.37;68.75
48810;BME280;40070;47.322;18.784;2023-06-10T12:40:06;997.62;;;24.05;69.44
48810;BME280;40070;47.322;18.784;2023-06-10T12:42:09;997.56;;;24.20;70.01
48810;BME280;40070;47.322;18.784;2023-06-10T12:44:11;997.56;;;24.13;70.08
48810;BME280;40070;47.322;18.784;2023-06-10T12:46:14;997.54;;;24.16;70.62
48810;BME280;40070;47.322;18.784;2023-06-10T12:48:23;997.52;;;24.06;71.40
48810;BME280;40070;47.322;18.784;2023-06-10T12:50:26;997.44;;;24.03;72.17
48810;BME280;40070;47.322;18.784;2023-06-10T12:52:28;997.43;;;24.04;73.35
48810;BME280;40070;47.322;18.784;2023-06-10T12:54:31;997.39;;;24.05;72.80
48810;BME280;40070;47.322;18.784;2023-06-10T12:56:33;997.35;;;24.23;71.59
48810;BME280;40070;47.322;18.784;2023-06-10T12:58:36;997.31;;;24.44;70.92
48810;BME280;40070;47.322;18.784;2023-06-10T13:00:39;997.31;;;24.69;70.24
48810;BME280;40070;47.322;18.784;2023-06-10T13:02:41;997.30;;;24.74;69.86
48810;BME280;40070;47.322;18.784;2023-06-10T13:04:44;997.30;;;25.08;70.27
48810;BME280;40070;47.322;18.784;2023-06-10T13:06:47;997.26;;;25.09;69.94
48810;BME280;40070;47.322;18.784;2023-06-10T13:08:49;997.26;;;25.34;68.67
48810;BME280;40070;47.322;18.784;2023-06-10T13:10:52;997.28;;;25.51;68.41
48810;BME280;40070;47.322;18.784;2023-06-10T13:12:54;997.23;;;25.74;68.08
48810;BME280;40070;47.322;18.784;2023-06-10T13:14:57;997.27;;;25.87;67.81
48810;BME280;40070;47.322;18.784;2023-06-10T13:16:59;997.25;;;25.92;68.10
48810;BME280;40070;47.322;18.784;2023-06-10T13:19:02;997.28;;;25.84;64.82
48810;BME280;40070;47.322;18.784;2023-06-10T13:21:04;997.27;;;25.87;64.95
48810;BME280;40070;47.322;18.784;2023-06-10T13:23:07;997.21;;;25.43;62.43
48810;BME280;40070;47.322;18.784;2023-06-10T13:25:09;997.24;;;25.47;63.34
48810;BME280;40070;47.322;18.784;2023-06-10T13:27:12;997.27;;;25.53;67.86
48810;BME280;40070;47.322;18.784;2023-06-10T13:29:14;997.28;;;25.60;67.06
48810;BME280;40070;47.322;18.784;2023-06-10T13:31:17;997.31;;;25.43;62.12
48810;BME280;40070;47.322;18.784;2023-06-10T13:33:19;997.29;;;25.32;66.61
48810;BME280;40070;47.322;18.784;2023-06-10T13:35:22;997.24;;;25.12;65.88
48810;BME280;40070;47.322;18.784;2023-06-10T13:37:24;997.24;;;25.08;65.97
48810;BME280;40070;47.322;18.784;2023-06-10T13:39:27;997.20;;;25.04;68.53
48810;BME280;40070;47.322;18.784;2023-06-10T13:41:29;997.18;;;24.78;70.20
48810;BME280;40070;47.322;18.784;2023-06-10T13:43:32;997.13;;;24.71;70.96
48810;BME280;40070;47.322;18.784;2023-06-10T13:45:34;997.09;;;24.48;68.18
48810;BME280;40070;47.322;18.784;2023-06-10T13:47:37;997.07;;;24.68;68.37
48810;BME280;40070;47.322;18.784;2023-06-10T13:49:39;997.03;;;24.65;69.70
48810;BME280;40070;47.322;18.784;2023-06-10T13:51:42;996.98;;;24.69;69.38
48810;BME280;40070;47.322;18.784;2023-06-10T13:53:44;996.95;;;24.61;72.09
48810;BME280;40070;47.322;18.784;2023-06-10T13:55:47;996.91;;;24.41;69.16
48810;BME280;40070;47.322;18.784;2023-06-10T13:57:49;996.91;;;24.40;69.12
48810;BME280;40070;47.322;18.784;2023-06-10T13:59:51;996.94;;;24.77;68.99
48810;BME280;40070;47.322;18.784;2023-06-10T14:01:54;996.96;;;24.88;70.12
48810;BME280;40070;47.322;18.784;2023-06-10T14:03:56;996.94;;;24.92;70.53
48810;BME280;40070;47.322;18.784;2023-06-10T14:05:59;996.93;;;25.00;69.75
48810;BME280;40070;47.322;18.784;2023-06-10T14:08:01;996.93;;;24.96;67.25
48810;BME280;40070;47.322;18.784;2023-06-10T14:10:04;996.90;;;24.78;63.60
48810;BME280;40070;47.322;18.784;2023-06-10T14:12:07;996.91;;;24.72;65.62
48810;BME280;40070;47.322;18.784;2023-06-10T14:14:09;996.86;;;25.11;66.60
48810;BME280;40070;47.322;18.784;2023-06-10T14:16:12;996.87;;;25.27;64.69
48810;BME280;40070;47.322;18.784;2023-06-10T14:18:15;996.85;;;25.06;66.19
48810;BME280;40070;47.322;18.784;2023-06-10T14:20:17;996.87;;;24.88;68.11
48810;BME280;40070;47.322;18.784;2023-06-10T14:22:20;996.84;;;24.59;63.89
48810;BME280;40070;47.322;18.784;2023-06-10T14:24:22;996.79;;;24.68;66.29
48810;BME280;40070;47.322;18.784;2023-06-10T14:26:25;996.81;;;24.83;63.68
48810;BME280;40070;47.322;18.784;2023-06-10T14:28:27;996.71;;;24.56;61.43
48810;BME280;40070;47.322;18.784;2023-06-10T14:30:30;996.69;;;24.35;64.31
48810;BME280;40070;47.322;18.784;2023-06-10T14:32:32;996.69;;;24.21;67.41
48810;BME280;40070;47.322;18.784;2023-06-10T14:34:35;996.76;;;24.26;67.68
48810;BME280;40070;47.322;18.784;2023-06-10T14:36:37;996.79;;;24.45;68.04
48810;BME280;40070;47.322;18.784;2023-06-10T14:38:40;996.85;;;24.10;69.23
48810;BME280;40070;47.322;18.784;2023-06-10T14:40:42;996.91;;;24.25;69.01
48810;BME280;40070;47.322;18.784;2023-06-10T14:42:45;996.96;;;23.94;70.41
48810;BME280;40070;47.322;18.784;2023-06-10T14:44:47;997.01;;;24.11;69.93
48810;BME280;40070;47.322;18.784;2023-06-10T14:46:50;997.07;;;24.06;66.39
48810;BME280;40070;47.322;18.784;2023-06-10T14:48:52;997.18;;;24.00;68.56
48810;BME280;40070;47.322;18.784;2023-06-10T14:50:54;997.24;;;23.91;68.42
48810;BME280;40070;47.322;18.784;2023-06-10T14:52:57;997.33;;;23.94;69.43
48810;BME280;40070;47.322;18.784;2023-06-10T14:55:00;997.34;;;23.59;71.48
48810;BME280;40070;47.322;18.784;2023-06-10T14:57:02;997.34;;;23.49;71.76
48810;BME280;40070;47.322;18.784;2023-06-10T14:59:05;997.40;;;23.31;72.56
48810;BME280;40070;47.322;18.784;2023-06-10T15:01:07;997.37;;;23.18;73.76
48810;BME280;40070;47.322;18.784;2023-06-10T15:03:10;997.41;;;23.14;73.29
48810;BME280;40070;47.322;18.784;2023-06-10T15:05:13;997.37;;;23.22;72.96
48810;BME280;40070;47.322;18.784;2023-06-10T15:07:15;997.39;;;23.46;72.01
48810;BME280;40070;47.322;18.784;2023-06-10T15:09:18;997.38;;;23.14;72.75
48810;BME280;40070;47.322;18.784;2023-06-10T15:11:20;997.37;;;23.12;73.50
48810;BME280;40070;47.322;18.784;2023-06-10T15:13:23;997.38;;;23.00;73.14
48810;BME280;40070;47.322;18.784;2023-06-10T15:15:25;997.35;;;23.05;71.92
48810;BME280;40070;47.322;18.784;2023-06-10T15:17:28;997.33;;;23.09;72.00
48810;BME280;40070;47.322;18.784;2023-06-10T15:19:31;997.38;;;22.92;72.96
48810;BME280;40070;47.322;18.784;2023-06-10T15:21:33;997.38;;;22.97;73.63
48810;BME280;40070;47.322;18.784;2023-06-10T15:23:36;997.33;;;22.99;73.71
48810;BME280;40070;47.322;18.784;2023-06-10T15:25:38;997.29;;;22.86;73.09
48810;BME280;40070;47.322;18.784;2023-06-10T15:27:41;997.22;;;22.70;74.54
48810;BME280;40070;47.322;18.784;2023-06-10T15:29:43;997.19;;;22.80;73.24
48810;BME280;40070;47.322;18.784;2023-06-10T15:31:46;997.20;;;22.96;72.46
48810;BME280;40070;47.322;18.784;2023-06-10T15:33:48;997.24;;;22.97;72.59
48810;BME280;40070;47.322;18.784;2023-06-10T15:35:51;997.26;;;23.04;72.54
48810;BME280;40070;47.322;18.784;2023-06-10T15:37:53;997.25;;;22.97;73.20
48810;BME280;40070;47.322;18.784;2023-06-10T15:39:56;997.22;;;23.07;72.87
48810;BME280;40070;47.322;18.784;2023-06-10T15:41:58;997.18;;;22.88;75.03
48810;BME280;40070;47.322;18.784;2023-06-10T15:44:01;997.17;;;22.90;75.19
48810;BME280;40070;47.322;18.784;2023-06-10T15:46:03;997.16;;;22.99;74.47
48810;BME280;40070;47.322;18.784;2023-06-10T15:48:06;997.14;;;23.16;74.12
48810;BME280;40070;47.322;18.784;2023-06-10T15:50:08;997.13;;;23.03;74.42
48810;BME280;40070;47.322;18.784;2023-06-10T15:52:11;997.11;;;22.85;76.25
48810;BME280;40070;47.322;18.784;2023-06-10T15:54:13;997.13;;;22.95;76.62
48810;BME280;40070;47.322;18.784;2023-06-10T15:56:16;997.12;;;22.84;76.07
48810;BME280;40070;47.322;18.784;2023-06-10T15:58:19;997.15;;;22.84;75.68
48810;BME280;40070;47.322;18.784;2023-06-10T16:00:21;997.22;;;22.96;75.79
48810;BME280;40070;47.322;18.784;2023-06-10T16:02:24;997.23;;;23.06;75.21
48810;BME280;40070;47.322;18.784;2023-06-10T16:04:26;997.25;;;23.14;74.61
48810;BME280;40070;47.322;18.784;2023-06-10T16:06:29;997.29;;;23.18;74.27
48810;BME280;40070;47.322;18.784;2023-06-10T16:08:31;997.30;;;23.01;74.97
48810;BME280;40070;47.322;18.784;2023-06-10T16:10:33;997.22;;;23.06;75.07
48810;BME280;40070;47.322;18.784;2023-06-10T16:12:36;997.25;;;23.06;76.00
48810;BME280;40070;47.322;18.784;2023-06-10T16:14:38;997.26;;;22.84;77.44
48810;BME280;40070;47.322;18.784;2023-06-10T16:16:41;997.25;;;22.70;77.99
48810;BME280;40070;47.322;18.784;2023-06-10T16:18:43;997.22;;;22.96;77.43
48810;BME280;40070;47.322;18.784;2023-06-10T16:20:46;997.24;;;22.92;76.91
48810;BME280;40070;47.322;18.784;2023-06-10T16:22:48;997.27;;;22.85;77.19
48810;BME280;40070;47.322;18.784;2023-06-10T16:24:51;997.28;;;22.69;78.12
48810;BME280;40070;47.322;18.784;2023-06-10T16:26:53;997.30;;;22.58;79.52
48810;BME280;40070;47.322;18.784;2023-06-10T16:28:56;997.33;;;22.43;79.90
48810;BME280;40070;47.322;18.784;2023-06-10T16:30:58;997.36;;;22.47;80.11
48810;BME280;40070;47.322;18.784;2023-06-10T16:33:01;997.34;;;22.51;80.04
48810;BME280;40070;47.322;18.784;2023-06-10T16:35:04;997.40;;;22.70;79.18
48810;BME280;40070;47.322;18.784;2023-06-10T16:37:06;997.41;;;22.82;78.23
48810;BME280;40070;47.322;18.784;2023-06-10T16:39:09;997.39;;;22.78;78.05
48810;BME280;40070;47.322;18.784;2023-06-10T16:41:11;997.41;;;22.86;77.34
48810;BME280;40070;47.322;18.784;2023-06-10T16:43:14;997.47;;;22.90;76.61
48810;BME280;40070;47.322;18.784;2023-06-10T16:45:16;997.47;;;22.85;76.31
48810;BME280;40070;47.322;18.784;2023-06-10T16:47:19;997.49;;;22.86;75.88
48810;BME280;40070;47.322;18.784;2023-06-10T16:49:21;997.52;;;22.40;77.58
48810;BME280;40070;47.322;18.784;2023-06-10T16:51:24;997.53;;;22.32;77.09
48810;BME280;40070;47.322;18.784;2023-06-10T16:53:26;997.54;;;22.35;77.14
48810;BME280;40070;47.322;18.784;2023-06-10T16:55:29;997.56;;;21.98;78.90
48810;BME280;40070;47.322;18.784;2023-06-10T16:57:31;997.57;;;22.04;79.58
48810;BME280;40070;47.322;18.784;2023-06-10T16:59:34;997.60;;;21.72;80.76
48810;BME280;40070;47.322;18.784;2023-06-10T17:01:36;997.58;;;21.78;80.55
48810;BME280;40070;47.322;18.784;2023-06-10T17:03:39;997.63;;;21.98;79.66
48810;BME280;40070;47.322;18.784;2023-06-10T17:05:41;997.58;;;22.27;78.37
48810;BME280;40070;47.322;18.784;2023-06-10T17:07:44;997.57;;;22.28;78.03
48810;BME280;40070;47.322;18.784;2023-06-10T17:09:46;997.58;;;22.27;78.51
48810;BME280;40070;47.322;18.784;2023-06-10T17:11:49;997.63;;;22.26;78.92
48810;BME280;40070;47.322;18.784;2023-06-10T17:13:51;997.66;;;22.34;78.64
48810;BME280;40070;47.322;18.784;2023-06-10T17:15:54;997.66;;;22.46;78.16
48810;BME280;40070;47.322;18.784;2023-06-10T17:17:56;997.73;;;22.40;78.52
48810;BME280;40070;47.322;18.784;2023-06-10T17:19:59;997.72;;;22.41;77.94
48810;BME280;40070;47.322;18.784;2023-06-10T17:22:01;997.80;;;22.14;79.64
48810;BME280;40070;47.322;18.784;2023-06-10T17:24:04;997.86;;;22.20;79.44
48810;BME280;40070;47.322;18.784;2023-06-10T17:26:07;997.83;;;22.34;78.91
48810;BME280;40070;47.322;18.784;2023-06-10T17:28:09;997.84;;;22.55;78.10
48810;BME280;40070;47.322;18.784;2023-06-10T17:30:12;997.88;;;22.53;78.32
48810;BME280;40070;47.322;18.784;2023-06-10T17:32:14;997.87;;;22.52;78.20
48810;BME280;40070;47.322;18.784;2023-06-10T17:34:17;997.91;;;22.58;78.16
48810;BME280;40070;47.322;18.784;2023-06-10T17:36:20;997.88;;;22.59;78.34
48810;BME280;40070;47.322;18.784;2023-06-10T17:38:22;997.88;;;22.26;80.04
48810;BME280;40070;47.322;18.784;2023-06-10T17:40:25;997.81;;;22.46;79.05
48810;BME280;40070;47.322;18.784;2023-06-10T17:42:27;997.83;;;22.31;80.20
48810;BME280;40070;47.322;18.784;2023-06-10T17:44:30;997.86;;;22.37;79.63
48810;BME280;40070;47.322;18.784;2023-06-10T17:46:33;997.82;;;22.46;79.46
48810;BME280;40070;47.322;18.784;2023-06-10T17:48:35;997.86;;;22.50;79.46
48810;BME280;40070;47.322;18.784;2023-06-10T17:50:38;997.88;;;22.53;79.21
48810;BME280;40070;47.322;18.784;2023-06-10T17:52:40;997.91;;;22.56;79.29
48810;BME280;40070;47.322;18.784;2023-06-10T17:54:43;997.90;;;22.44;79.71
48810;BME280;40070;47.322;18.784;2023-06-10T17:56:45;997.96;;;22.30;80.33
48810;BME280;40070;47.322;18.784;2023-06-10T17:58:48;997.90;;;22.38;80.50
48810;BME280;40070;47.322;18.784;2023-06-10T18:00:50;997.98;;;22.31;80.22
48810;BME280;40070;47.322;18.784;2023-06-10T18:02:53;997.90;;;22.40;79.97
48810;BME280;40070;47.322;18.784;2023-06-10T18:04:55;997.89;;;22.39;79.97
48810;BME280;40070;47.322;18.784;2023-06-10T18:06:58;997.93;;;22.49;79.63
48810;BME280;40070;47.322;18.784;2023-06-10T18:09:00;997.94;;;22.41;79.86
48810;BME280;40070;47.322;18.784;2023-06-10T18:11:03;997.95;;;22.33;80.46
48810;BME280;40070;47.322;18.784;2023-06-10T18:13:05;997.97;;;22.27;81.00
48810;BME280;40070;47.322;18.784;2023-06-10T18:15:08;997.95;;;22.20;81.45
48810;BME280;40070;47.322;18.784;2023-06-10T18:17:10;997.94;;;22.34;80.74
48810;BME280;40070;47.322;18.784;2023-06-10T18:19:13;997.97;;;22.24;81.36
48810;BME280;40070;47.322;18.784;2023-06-10T18:21:16;997.98;;;22.20;81.29
48810;BME280;40070;47.322;18.784;2023-06-10T18:23:18;997.99;;;22.34;80.69
48810;BME280;40070;47.322;18.784;2023-06-10T18:25:20;997.99;;;22.33;80.12
48810;BME280;40070;47.322;18.784;2023-06-10T18:27:23;998.07;;;22.18;80.31
48810;BME280;40070;47.322;18.784;2023-06-10T18:29:25;998.06;;;22.18;80.35
48810;BME280;40070;47.322;18.784;2023-06-10T18:31:28;998.02;;;22.30;79.80
48810;BME280;40070;47.322;18.784;2023-06-10T18:33:31;997.98;;;22.41;79.34
48810;BME280;40070;47.322;18.784;2023-06-10T18:35:34;997.98;;;22.44;78.71
48810;BME280;40070;47.322;18.784;2023-06-10T18:37:37;998.02;;;22.47;78.35
48810;BME280;40070;47.322;18.784;2023-06-10T18:39:39;998.07;;;22.37;78.23